Time;durP1;ratioP1;P1;durP2;ratioP2;P2;SDS_P1;SDS_P2;PMS_P1;PMS_P2;Temp;Humidity;BMP_temperature;BMP_pressure;BME280_temperature;BME280_humidity;BME280_pressure;Samples;Min_cycle;Max_cycle;Signal;HPM_P1;HPM_P2
2022/03/05 00:01:37;;;;;;;45.40;15.05;;;;;;;;;;5012394;28;20390;-68
2022/03/05 00:04:02;;;;;;;45.42;12.77;;;;;;;;;;5013115;28;20503;-68
2022/03/05 00:06:28;;;;;;;45.83;13.10;;;;;;;;;;5012656;28;20029;-67
2022/03/05 00:08:53;;;;;;;47.83;15.00;;;;;;;;;;5013067;28;20481;-68
2022/03/05 00:11:18;;;;;;;43.25;14.07;;;;;;;;;;5012212;28;20018;-68
2022/03/05 00:13:43;;;;;;;27.98;9.98;;;;;;;;;;5012400;28;20109;-68
2022/03/05 00:16:09;;;;;;;50.67;16.27;;;;;;;;;;5012647;28;20478;-68
2022/03/05 00:18:34;;;;;;;44.58;15.27;;;;;;;;;;5012734;28;20018;-68
2022/03/05 00:20:59;;;;;;;49.90;16.67;;;;;;;;;;5012853;28;20157;-68
2022/03/05 00:23:25;;;;;;;53.95;17.67;;;;;;;;;;5012305;28;20026;-68
2022/03/05 00:25:51;;;;;;;59.05;17.55;;;;;;;;;;5012192;28;20065;-68
2022/03/05 00:28:16;;;;;;;53.28;16.45;;;;;;;;;;5012609;28;20049;-68
2022/03/05 00:30:41;;;;;;;54.47;17.10;;;;;;;;;;5012032;28;20372;-68
2022/03/05 00:33:07;;;;;;;58.47;16.98;;;;;;;;;;5012357;28;20028;-68
2022/03/05 00:35:33;;;;;;;47.63;14.00;;;;;;;;;;5011917;28;20056;-68
2022/03/05 00:37:58;;;;;;;55.70;17.20;;;;;;;;;;5011726;28;20029;-68
2022/03/05 00:40:23;;;;;;;40.63;12.52;;;;;;;;;;5012024;28;20033;-67
2022/03/05 00:42:48;;;;;;;56.45;17.02;;;;;;;;;;5011530;28;20409;-68
2022/03/05 00:45:14;;;;;;;52.50;15.70;;;;;;;;;;5009808;28;20434;-67
2022/03/05 00:47:39;;;;;;;65.03;18.63;;;;;;;;;;5011357;28;20037;-68
2022/03/05 00:50:06;;;;;;;62.70;18.02;;;;;;;;;;5020628;28;20040;-68
2022/03/05 00:52:31;;;;;;;43.78;13.43;;;;;;;;;;5011571;28;20018;-68
2022/03/05 00:54:57;;;;;;;68.20;18.35;;;;;;;;;;5009975;28;20494;-68
2022/03/05 00:57:22;;;;;;;55.40;17.42;;;;;;;;;;5011604;28;20021;-68
2022/03/05 00:59:47;;;;;;;59.83;18.60;;;;;;;;;;5011368;28;20030;-68
2022/03/05 01:02:12;;;;;;;27.98;10.30;;;;;;;;;;5011342;28;20022;-68
2022/03/05 01:04:37;;;;;;;68.45;20.08;;;;;;;;;;5011402;28;20076;-68
2022/03/05 01:07:03;;;;;;;41.88;14.75;;;;;;;;;;5011868;28;20034;-68
2022/03/05 01:09:28;;;;;;;52.90;14.20;;;;;;;;;;5009408;28;20394;-68
2022/03/05 01:11:53;;;;;;;59.05;15.50;;;;;;;;;;5011532;28;20113;-68
2022/03/05 01:14:18;;;;;;;53.20;18.70;;;;;;;;;;5011295;28;20033;-67
2022/03/05 01:16:43;;;;;;;60.00;19.60;;;;;;;;;;5010031;28;20018;-67
2022/03/05 01:19:09;;;;;;;69.97;19.63;;;;;;;;;;5008765;28;20429;-67
2022/03/05 01:21:34;;;;;;;70.13;18.20;;;;;;;;;;5009867;28;20038;-67
2022/03/05 01:23:59;;;;;;;69.53;20.00;;;;;;;;;;5011318;28;20021;-67
2022/03/05 01:26:27;;;;;;;58.65;17.10;;;;;;;;;;5010060;28;20025;-67
2022/03/05 01:28:52;;;;;;;56.22;15.60;;;;;;;;;;5004098;28;20075;-67
2022/03/05 01:31:18;;;;;;;58.92;18.00;;;;;;;;;;5011144;28;20097;-67
2022/03/05 01:33:43;;;;;;;60.97;16.17;;;;;;;;;;5010496;28;20037;-67
2022/03/05 01:36:08;;;;;;;36.75;12.10;;;;;;;;;;5004836;28;20020;-67
2022/03/05 01:38:33;;;;;;;45.67;13.23;;;;;;;;;;5017157;28;20466;-68
2022/03/05 01:40:58;;;;;;;70.05;18.73;;;;;;;;;;5015684;28;20026;-67
2022/03/05 01:43:24;;;;;;;62.67;18.13;;;;;;;;;;5010308;28;20021;-67
2022/03/05 01:45:50;;;;;;;41.00;12.95;;;;;;;;;;5010574;28;20052;-67
2022/03/05 01:48:15;;;;;;;53.78;16.58;;;;;;;;;;5010541;28;20113;-68
2022/03/05 01:50:40;;;;;;;61.63;19.00;;;;;;;;;;5010487;28;20024;-67
2022/03/05 01:53:05;;;;;;;45.60;14.07;;;;;;;;;;5006995;28;20057;-67
2022/03/05 01:55:31;;;;;;;62.95;18.70;;;;;;;;;;5007123;28;20034;-67
2022/03/05 01:57:56;;;;;;;82.45;20.88;;;;;;;;;;5011017;28;20049;-67
2022/03/05 02:00:22;;;;;;;36.95;11.30;;;;;;;;;;5010177;28;20080;-67
2022/03/05 02:02:47;;;;;;;57.13;17.17;;;;;;;;;;5010432;28;20026;-67
2022/03/05 02:05:13;;;;;;;68.32;20.35;;;;;;;;;;5010042;28;20021;-68
2022/03/05 02:07:38;;;;;;;65.18;18.42;;;;;;;;;;5010335;28;20038;-67
2022/03/05 02:10:05;;;;;;;60.38;19.10;;;;;;;;;;5010950;28;20068;-67
2022/03/05 02:12:34;;;;;;;61.90;18.95;;;;;;;;;;5009668;28;20025;-67
2022/03/05 02:14:59;;;;;;;59.22;18.45;;;;;;;;;;5014204;28;20380;-67
2022/03/05 02:17:25;;;;;;;45.72;13.75;;;;;;;;;;5008196;28;20025;-67
2022/03/05 02:19:50;;;;;;;66.55;20.92;;;;;;;;;;5009107;28;20034;-67
2022/03/05 02:22:15;;;;;;;69.97;20.08;;;;;;;;;;5009532;28;20033;-67
2022/03/05 02:24:40;;;;;;;53.33;16.67;;;;;;;;;;5009919;28;20631;-67
2022/03/05 02:27:06;;;;;;;59.40;19.17;;;;;;;;;;5009715;28;20386;-67
2022/03/05 02:29:32;;;;;;;59.55;16.63;;;;;;;;;;5009913;28;20069;-67
2022/03/05 02:31:57;;;;;;;57.50;16.05;;;;;;;;;;5010383;28;20022;-67
2022/03/05 02:34:23;;;;;;;41.63;12.95;;;;;;;;;;5010114;28;20029;-67
2022/03/05 02:36:48;;;;;;;67.05;21.02;;;;;;;;;;5010147;28;20255;-67
2022/03/05 02:39:13;;;;;;;65.72;18.63;;;;;;;;;;5009750;28;20026;-67
2022/03/05 02:41:39;;;;;;;66.43;17.80;;;;;;;;;;5008030;28;20022;-68
2022/03/05 02:44:04;;;;;;;68.40;18.23;;;;;;;;;;5009110;28;20017;-67
2022/03/05 02:46:29;;;;;;;47.38;12.70;;;;;;;;;;5009163;28;20426;-68
2022/03/05 02:48:55;;;;;;;62.83;17.20;;;;;;;;;;5009658;28;20049;-67
2022/03/05 02:51:20;;;;;;;78.78;18.83;;;;;;;;;;5008660;28;20029;-67
2022/03/05 02:53:46;;;;;;;67.50;18.98;;;;;;;;;;5008870;28;20096;-67
2022/03/05 02:56:11;;;;;;;63.97;20.20;;;;;;;;;;5009041;28;20085;-67
2022/03/05 02:58:36;;;;;;;33.47;9.35;;;;;;;;;;5007809;28;20132;-67
2022/03/05 03:01:01;;;;;;;61.38;18.73;;;;;;;;;;5009944;28;20026;-67
2022/03/05 03:03:26;;;;;;;55.15;16.88;;;;;;;;;;5010626;28;20017;-68
2022/03/05 03:05:52;;;;;;;53.90;16.65;;;;;;;;;;5006319;28;20022;-67
2022/03/05 03:08:17;;;;;;;62.13;18.98;;;;;;;;;;5009878;28;20141;-67
2022/03/05 03:10:42;;;;;;;56.40;18.00;;;;;;;;;;5009305;28;20030;-67
2022/03/05 03:13:07;;;;;;;44.92;13.48;;;;;;;;;;5009326;28;20487;-67
2022/03/05 03:15:32;;;;;;;64.40;18.23;;;;;;;;;;5010931;28;20032;-67
2022/03/05 03:17:58;;;;;;;59.95;18.83;;;;;;;;;;5013557;28;20041;-67
2022/03/05 03:20:24;;;;;;;53.08;15.27;;;;;;;;;;5018923;28;20109;-67
2022/03/05 03:22:49;;;;;;;59.38;18.63;;;;;;;;;;5012545;28;20482;-67
2022/03/05 03:25:15;;;;;;;47.80;14.70;;;;;;;;;;5013472;28;20072;-67
2022/03/05 03:27:40;;;;;;;42.58;11.07;;;;;;;;;;5004612;28;20025;-67
2022/03/05 03:30:06;;;;;;;50.90;15.88;;;;;;;;;;5011017;28;20022;-67
2022/03/05 03:32:32;;;;;;;57.90;18.25;;;;;;;;;;5011334;28;20045;-67
2022/03/05 03:34:57;;;;;;;56.05;15.73;;;;;;;;;;5010108;28;20022;-67
2022/03/05 03:37:22;;;;;;;58.38;17.50;;;;;;;;;;5011591;28;20030;-67
2022/03/05 03:39:47;;;;;;;49.03;13.88;;;;;;;;;;5010385;28;20413;-67
2022/03/05 03:42:13;;;;;;;56.25;17.60;;;;;;;;;;5016698;28;20030;-67
2022/03/05 03:44:38;;;;;;;66.10;18.77;;;;;;;;;;5012765;28;20024;-67
2022/03/05 03:47:04;;;;;;;57.13;15.85;;;;;;;;;;5013242;28;20032;-67
2022/03/05 03:49:29;;;;;;;60.20;16.98;;;;;;;;;;5012532;28;20309;-67
2022/03/05 03:51:54;;;;;;;41.85;9.77;;;;;;;;;;5012858;28;20029;-67
2022/03/05 03:54:19;;;;;;;54.55;16.77;;;;;;;;;;5012501;28;20028;-67
2022/03/05 03:56:44;;;;;;;33.65;10.05;;;;;;;;;;5012970;28;20571;-67
2022/03/05 03:59:10;;;;;;;50.13;16.40;;;;;;;;;;5009664;28;20037;-67
2022/03/05 04:01:35;;;;;;;54.50;16.80;;;;;;;;;;5011163;28;20043;-67
2022/03/05 04:04:00;;;;;;;47.15;14.80;;;;;;;;;;5012906;28;20470;-67
2022/03/05 04:08:41;;;;;;;62.10;17.50;;;;;;;;;;5012354;28;20030;-67
2022/03/05 04:09:11;;;;;;;62.28;16.80;;;;;;;;;;5003052;28;20026;-67
2022/03/05 04:11:36;;;;;;;44.83;12.68;;;;;;;;;;5012207;28;20040;-67
2022/03/05 04:14:01;;;;;;;58.35;16.85;;;;;;;;;;5012932;28;20022;-67
2022/03/05 04:16:26;;;;;;;41.15;12.43;;;;;;;;;;5012739;28;20018;-67
2022/03/05 04:18:51;;;;;;;50.92;15.50;;;;;;;;;;5012417;28;20021;-67
2022/03/05 04:21:16;;;;;;;52.13;13.57;;;;;;;;;;5012371;28;20030;-67
2022/03/05 04:23:42;;;;;;;54.17;16.50;;;;;;;;;;5012427;28;20029;-67
2022/03/05 04:26:07;;;;;;;73.18;14.10;;;;;;;;;;5012269;28;20391;-67
2022/03/05 04:28:32;;;;;;;52.90;16.92;;;;;;;;;;5012030;28;20063;-67
2022/03/05 04:30:57;;;;;;;59.55;15.57;;;;;;;;;;5012774;28;20021;-67
2022/03/05 04:33:22;;;;;;;29.30;9.30;;;;;;;;;;5011951;28;20352;-67
2022/03/05 04:35:47;;;;;;;55.08;17.08;;;;;;;;;;5010747;28;20025;-67
2022/03/05 04:38:13;;;;;;;32.60;11.05;;;;;;;;;;5012057;28;20037;-67
2022/03/05 04:40:38;;;;;;;64.28;19.52;;;;;;;;;;5011142;28;20045;-67
2022/03/05 04:43:03;;;;;;;48.60;13.27;;;;;;;;;;5011805;28;20098;-66
2022/03/05 04:45:28;;;;;;;58.25;18.08;;;;;;;;;;5011776;28;20050;-66
2022/03/05 04:47:53;;;;;;;56.35;16.15;;;;;;;;;;5038262;23;20045;-65
2022/03/05 04:50:19;;;;;;;54.08;17.38;;;;;;;;;;5031749;28;20025;-65
2022/03/05 04:52:44;;;;;;;27.15;7.68;;;;;;;;;;5031697;28;20026;-65
2022/03/05 04:55:10;;;;;;;56.70;16.33;;;;;;;;;;5031019;28;20025;-65
2022/03/05 04:57:35;;;;;;;56.25;17.27;;;;;;;;;;5030993;28;20029;-65
2022/03/05 05:00:00;;;;;;;43.20;12.00;;;;;;;;;;5028661;28;20025;-65
2022/03/05 05:02:26;;;;;;;51.22;16.48;;;;;;;;;;5030452;28;20030;-65
2022/03/05 05:04:51;;;;;;;51.85;16.90;;;;;;;;;;5030995;28;20060;-65
2022/03/05 05:07:16;;;;;;;55.15;16.20;;;;;;;;;;5031240;28;20026;-65
2022/03/05 05:09:41;;;;;;;33.63;9.23;;;;;;;;;;5030638;28;20014;-65
2022/03/05 05:12:07;;;;;;;57.65;17.75;;;;;;;;;;5031509;28;20032;-65
2022/03/05 05:14:32;;;;;;;51.65;15.68;;;;;;;;;;5031407;28;20044;-65
2022/03/05 05:16:57;;;;;;;46.20;14.23;;;;;;;;;;5031234;28;20087;-65
2022/03/05 05:19:27;;;;;;;52.35;15.45;;;;;;;;;;5031428;28;20436;-64
2022/03/05 05:21:53;;;;;;;45.45;12.45;;;;;;;;;;5031767;28;20029;-65
2022/03/05 05:24:20;;;;;;;39.17;10.52;;;;;;;;;;5030696;28;20432;-65
2022/03/05 05:26:45;;;;;;;48.85;16.63;;;;;;;;;;5031502;28;20029;-64
2022/03/05 05:29:10;;;;;;;59.53;15.55;;;;;;;;;;5030686;28;20580;-65
2022/03/05 05:31:36;;;;;;;46.30;12.95;;;;;;;;;;5030817;28;20017;-65
2022/03/05 05:34:01;;;;;;;60.67;17.45;;;;;;;;;;5031069;28;20041;-65
2022/03/05 05:36:26;;;;;;;47.10;14.95;;;;;;;;;;5030873;28;20021;-65
2022/03/05 05:38:51;;;;;;;49.33;13.52;;;;;;;;;;5029665;28;20116;-66
2022/03/05 05:41:18;;;;;;;56.90;16.45;;;;;;;;;;5030827;28;20087;-65
2022/03/05 05:43:43;;;;;;;49.03;15.63;;;;;;;;;;5030613;28;20029;-65
2022/03/05 05:46:08;;;;;;;50.25;15.45;;;;;;;;;;5030668;28;20040;-65
2022/03/05 05:48:33;;;;;;;34.42;12.93;;;;;;;;;;5030752;28;20068;-65
2022/03/05 05:50:59;;;;;;;51.45;16.38;;;;;;;;;;5028315;28;20021;-65
2022/03/05 05:53:25;;;;;;;50.17;13.68;;;;;;;;;;5031280;28;20033;-65
2022/03/05 05:55:51;;;;;;;48.97;15.18;;;;;;;;;;5030338;28;20408;-65
2022/03/05 05:58:16;;;;;;;47.65;14.25;;;;;;;;;;5030426;28;20108;-65
2022/03/05 06:00:41;;;;;;;51.00;15.05;;;;;;;;;;5030033;28;20048;-65
2022/03/05 06:03:07;;;;;;;43.42;13.13;;;;;;;;;;5030161;28;20029;-65
2022/03/05 06:05:32;;;;;;;50.25;15.63;;;;;;;;;;5030289;28;20024;-65
2022/03/05 06:07:57;;;;;;;38.88;10.77;;;;;;;;;;5029921;28;20025;-65
2022/03/05 06:10:22;;;;;;;17.83;4.35;;;;;;;;;;5030508;28;20025;-65
2022/03/05 06:12:48;;;;;;;56.85;15.93;;;;;;;;;;5030313;28;20385;-65
2022/03/05 06:15:14;;;;;;;25.48;8.90;;;;;;;;;;5029753;28;20065;-65
2022/03/05 06:17:42;;;;;;;57.53;15.60;;;;;;;;;;5030324;28;20492;-65
2022/03/05 06:20:08;;;;;;;29.00;9.77;;;;;;;;;;5029523;28;20053;-65
2022/03/05 06:22:33;;;;;;;42.60;14.60;;;;;;;;;;5030542;28;20106;-65
2022/03/05 06:24:58;;;;;;;45.65;15.32;;;;;;;;;;5030183;28;20489;-66
2022/03/05 06:27:23;;;;;;;62.50;17.75;;;;;;;;;;5029868;28;20135;-65
2022/03/05 06:29:48;;;;;;;53.38;17.65;;;;;;;;;;5029546;28;20028;-65
2022/03/05 06:32:14;;;;;;;47.50;15.13;;;;;;;;;;5030186;28;20033;-65
2022/03/05 06:34:39;;;;;;;52.17;16.35;;;;;;;;;;5029806;28;20032;-65
2022/03/05 06:37:04;;;;;;;45.40;14.15;;;;;;;;;;5030122;28;20087;-65
2022/03/05 06:39:29;;;;;;;30.33;9.80;;;;;;;;;;5029951;28;20440;-65
2022/03/05 06:41:54;;;;;;;42.63;11.13;;;;;;;;;;5029350;28;20033;-65
2022/03/05 06:44:19;;;;;;;46.88;13.43;;;;;;;;;;5029770;28;20090;-65
2022/03/05 06:46:45;;;;;;;32.67;11.25;;;;;;;;;;5026974;28;20040;-65
2022/03/05 06:49:10;;;;;;;45.85;13.38;;;;;;;;;;5026127;28;20096;-65
2022/03/05 06:51:35;;;;;;;41.55;15.50;;;;;;;;;;5031604;28;20018;-65
2022/03/05 06:54:00;;;;;;;37.42;11.77;;;;;;;;;;5024531;28;20025;-65
2022/03/05 06:56:26;;;;;;;39.80;11.80;;;;;;;;;;5032382;28;20037;-66
2022/03/05 06:58:51;;;;;;;29.92;10.75;;;;;;;;;;5035942;28;20397;-64
2022/03/05 07:01:16;;;;;;;24.45;7.43;;;;;;;;;;5035962;28;20060;-64
2022/03/05 07:03:41;;;;;;;27.52;8.93;;;;;;;;;;5036329;28;20512;-66
2022/03/05 07:06:06;;;;;;;45.90;14.32;;;;;;;;;;5035644;28;20033;-66
2022/03/05 07:08:32;;;;;;;30.08;11.00;;;;;;;;;;5037436;28;20104;-65
2022/03/05 07:10:57;;;;;;;50.97;16.20;;;;;;;;;;5039371;28;20025;-64
2022/03/05 07:13:22;;;;;;;45.92;17.90;;;;;;;;;;5031679;28;20064;-66
2022/03/05 07:15:47;;;;;;;34.65;11.95;;;;;;;;;;5036316;28;20021;-65
2022/03/05 07:18:13;;;;;;;46.50;16.90;;;;;;;;;;5033432;28;20029;-66
2022/03/05 07:20:38;;;;;;;27.90;9.55;;;;;;;;;;5031953;28;20025;-64
2022/03/05 07:23:04;;;;;;;39.22;12.93;;;;;;;;;;5034109;28;20026;-65
2022/03/05 07:25:36;;;;;;;40.90;14.27;;;;;;;;;;5023272;28;20021;-65
2022/03/05 07:28:01;;;;;;;37.30;15.80;;;;;;;;;;5031833;28;20108;-65
2022/03/05 07:30:26;;;;;;;49.58;17.20;;;;;;;;;;5033981;28;20551;-64
2022/03/05 07:32:51;;;;;;;42.20;16.55;;;;;;;;;;5032965;28;20440;-64
2022/03/05 07:35:16;;;;;;;30.10;9.63;;;;;;;;;;5029652;28;20037;-64
2022/03/05 07:37:42;;;;;;;45.33;17.35;;;;;;;;;;5031679;28;20430;-64
2022/03/05 07:40:07;;;;;;;25.85;9.80;;;;;;;;;;5032814;28;20021;-64
2022/03/05 07:42:33;;;;;;;39.80;15.23;;;;;;;;;;5034070;28;20362;-64
2022/03/05 07:44:58;;;;;;;39.90;14.55;;;;;;;;;;5034386;28;20052;-65
2022/03/05 07:47:23;;;;;;;43.55;14.57;;;;;;;;;;5034403;28;20061;-65
2022/03/05 07:49:48;;;;;;;33.63;13.35;;;;;;;;;;5032817;28;20112;-65
2022/03/05 07:52:14;;;;;;;35.20;12.68;;;;;;;;;;5034505;28;20029;-65
2022/03/05 07:54:39;;;;;;;32.70;12.60;;;;;;;;;;5031814;28;20013;-66
2022/03/05 07:57:04;;;;;;;33.75;12.45;;;;;;;;;;5034799;28;20053;-66
2022/03/05 07:59:30;;;;;;;28.58;10.50;;;;;;;;;;5034330;28;20116;-65
2022/03/05 08:01:55;;;;;;;29.77;9.50;;;;;;;;;;5032938;28;20036;-65
2022/03/05 08:04:20;;;;;;;29.50;10.52;;;;;;;;;;5031528;28;20036;-65
2022/03/05 08:06:45;;;;;;;44.97;14.87;;;;;;;;;;5031449;28;20414;-66
2022/03/05 08:09:11;;;;;;;42.90;16.92;;;;;;;;;;5030899;28;20268;-65
2022/03/05 08:11:36;;;;;;;32.25;13.43;;;;;;;;;;5031398;28;20017;-66
2022/03/05 08:14:01;;;;;;;33.15;12.82;;;;;;;;;;5031354;28;20022;-65
2022/03/05 08:16:27;;;;;;;29.15;10.52;;;;;;;;;;5029003;28;20068;-65
2022/03/05 08:18:52;;;;;;;40.55;15.38;;;;;;;;;;5031855;28;20026;-65
2022/03/05 08:21:18;;;;;;;30.17;10.95;;;;;;;;;;5032566;28;20491;-65
2022/03/05 08:23:43;;;;;;;36.30;15.13;;;;;;;;;;5033114;28;20108;-65
2022/03/05 08:26:13;;;;;;;27.63;11.73;;;;;;;;;;5032578;28;20029;-65
2022/03/05 08:28:38;;;;;;;30.88;13.50;;;;;;;;;;5032624;28;20260;-66
2022/03/05 08:31:03;;;;;;;25.38;10.30;;;;;;;;;;5032256;28;20026;-65
2022/03/05 08:33:29;;;;;;;29.33;10.80;;;;;;;;;;5031732;28;20489;-65
2022/03/05 08:35:55;;;;;;;32.05;12.85;;;;;;;;;;5032402;28;20284;-65
2022/03/05 08:38:20;;;;;;;33.63;14.63;;;;;;;;;;5032058;28;20079;-66
2022/03/05 08:40:45;;;;;;;26.07;10.80;;;;;;;;;;5032451;28;20295;-65
2022/03/05 08:43:10;;;;;;;24.50;8.20;;;;;;;;;;5030568;28;20271;-65
2022/03/05 08:45:35;;;;;;;33.17;14.80;;;;;;;;;;5031649;28;20093;-65
2022/03/05 08:48:01;;;;;;;25.65;9.35;;;;;;;;;;5031680;28;20029;-65
2022/03/05 08:50:26;;;;;;;31.27;12.50;;;;;;;;;;5031893;28;20025;-65
2022/03/05 08:52:51;;;;;;;24.48;11.30;;;;;;;;;;5026373;28;20493;-65
2022/03/05 08:55:16;;;;;;;29.50;10.85;;;;;;;;;;5030181;28;20381;-66
2022/03/05 08:57:42;;;;;;;28.25;11.10;;;;;;;;;;5030232;28;20075;-65
2022/03/05 09:00:08;;;;;;;26.98;11.63;;;;;;;;;;5029469;28;20473;-66
2022/03/05 09:02:34;;;;;;;33.40;14.00;;;;;;;;;;5030942;28;20013;-65
2022/03/05 09:04:59;;;;;;;40.05;14.50;;;;;;;;;;5031566;28;20140;-65
2022/03/05 09:07:24;;;;;;;25.58;10.13;;;;;;;;;;5031929;28;20033;-65
2022/03/05 09:09:49;;;;;;;29.65;11.13;;;;;;;;;;5031477;28;20040;-65
2022/03/05 09:12:14;;;;;;;30.58;11.85;;;;;;;;;;5031671;28;20029;-65
2022/03/05 09:14:40;;;;;;;19.60;8.38;;;;;;;;;;5024239;28;20025;-66
2022/03/05 09:17:05;;;;;;;30.92;12.38;;;;;;;;;;5029677;28;20562;-65
2022/03/05 09:19:31;;;;;;;36.58;14.75;;;;;;;;;;5031934;28;20026;-65
2022/03/05 09:21:56;;;;;;;21.43;9.03;;;;;;;;;;5031761;28;20060;-67
2022/03/05 09:24:21;;;;;;;37.83;14.87;;;;;;;;;;5031893;28;20725;-65
2022/03/05 09:26:46;;;;;;;22.48;8.95;;;;;;;;;;5031785;28;20303;-65
2022/03/05 09:29:11;;;;;;;38.33;16.27;;;;;;;;;;5031600;28;20090;-65
2022/03/05 09:31:39;;;;;;;41.35;12.70;;;;;;;;;;5030138;28;20760;-65
2022/03/05 09:34:04;;;;;;;36.95;12.90;;;;;;;;;;5031880;28;20049;-65
2022/03/05 09:36:30;;;;;;;36.30;15.80;;;;;;;;;;5030048;28;20528;-65
2022/03/05 09:38:55;;;;;;;28.80;11.23;;;;;;;;;;5031155;28;20013;-65
2022/03/05 09:41:21;;;;;;;35.10;15.03;;;;;;;;;;5031597;28;20033;-65
2022/03/05 09:43:46;;;;;;;37.42;16.52;;;;;;;;;;5031417;28;20295;-65
2022/03/05 09:46:12;;;;;;;45.47;17.50;;;;;;;;;;5031273;28;20053;-64
2022/03/05 09:48:39;;;;;;;39.65;17.08;;;;;;;;;;5031727;28;20079;-65
2022/03/05 09:51:04;;;;;;;38.38;15.80;;;;;;;;;;5031608;28;20014;-65
2022/03/05 09:53:30;;;;;;;24.38;9.48;;;;;;;;;;5031279;28;20080;-65
2022/03/05 09:55:55;;;;;;;18.20;9.93;;;;;;;;;;5031312;28;20387;-65
2022/03/05 09:58:20;;;;;;;24.92;10.85;;;;;;;;;;5035495;28;20490;-65
2022/03/05 10:00:45;;;;;;;30.57;10.60;;;;;;;;;;5028677;28;20029;-65
2022/03/05 10:03:14;;;;;;;22.80;9.32;;;;;;;;;;5030732;28;20268;-65
2022/03/05 10:05:39;;;;;;;25.40;10.70;;;;;;;;;;5031719;28;20032;-65
2022/03/05 10:08:08;;;;;;;26.25;11.15;;;;;;;;;;5032684;28;20405;-65
2022/03/05 10:10:52;;;;;;;22.33;7.13;;;;;;;;;;5030546;28;20014;-64
2022/03/05 10:13:17;;;;;;;19.30;8.15;;;;;;;;;;5023494;28;20060;-65
2022/03/05 10:15:42;;;;;;;20.63;8.27;;;;;;;;;;5028433;28;20045;-65
2022/03/05 10:18:08;;;;;;;29.35;11.10;;;;;;;;;;5026351;28;20179;-65
2022/03/05 10:20:34;;;;;;;25.58;9.10;;;;;;;;;;5030979;28;20095;-65
2022/03/05 10:23:02;;;;;;;21.80;10.52;;;;;;;;;;5030574;28;20037;-65
2022/03/05 10:25:31;;;;;;;23.38;10.68;;;;;;;;;;5030317;28;20109;-66
2022/03/05 10:28:00;;;;;;;39.47;16.08;;;;;;;;;;5030803;28;20465;-66
2022/03/05 10:30:30;;;;;;;28.30;10.63;;;;;;;;;;5030613;28;20553;-66
2022/03/05 10:32:55;;;;;;;21.17;8.65;;;;;;;;;;5030737;28;20025;-66
2022/03/05 10:35:20;;;;;;;23.53;8.37;;;;;;;;;;5030673;28;20027;-66
2022/03/05 10:37:50;;;;;;;32.43;14.47;;;;;;;;;;5030937;28;20351;-66
2022/03/05 10:40:15;;;;;;;30.90;12.20;;;;;;;;;;5030627;28;20272;-66
2022/03/05 10:42:46;;;;;;;29.75;13.00;;;;;;;;;;5030164;28;20022;-66
2022/03/05 10:45:12;;;;;;;30.90;12.15;;;;;;;;;;5030458;28;20010;-66
2022/03/05 10:47:45;;;;;;;33.42;8.65;;;;;;;;;;5030247;28;20028;-66
2022/03/05 10:50:20;;;;;;;31.23;12.35;;;;;;;;;;5030639;28;20026;-66
2022/03/05 10:52:47;;;;;;;26.83;11.98;;;;;;;;;;5030257;28;20366;-66
2022/03/05 10:55:14;;;;;;;25.85;9.07;;;;;;;;;;5029926;28;20454;-65
2022/03/05 10:57:54;;;;;;;20.05;8.93;;;;;;;;;;5030209;28;20017;-66
2022/03/05 11:00:19;;;;;;;23.95;9.13;;;;;;;;;;5029956;28;20032;-65
2022/03/05 11:02:45;;;;;;;20.00;8.35;;;;;;;;;;5032755;28;20017;-66
2022/03/05 11:05:10;;;;;;;31.70;13.15;;;;;;;;;;5048329;28;20112;-65
2022/03/05 11:07:35;;;;;;;27.20;10.68;;;;;;;;;;5036411;28;20026;-66
2022/03/05 11:10:01;;;;;;;32.38;13.75;;;;;;;;;;5029611;28;20025;-66
2022/03/05 11:12:28;;;;;;;21.08;10.23;;;;;;;;;;5030450;28;20033;-66
2022/03/05 11:14:53;;;;;;;32.05;14.43;;;;;;;;;;5028934;28;20048;-66
2022/03/05 11:17:19;;;;;;;28.87;11.00;;;;;;;;;;5028336;28;20061;-66
2022/03/05 11:19:44;;;;;;;31.10;14.10;;;;;;;;;;5030158;28;20256;-66
2022/03/05 11:22:11;;;;;;;30.38;12.45;;;;;;;;;;5030362;28;20025;-66
2022/03/05 11:24:38;;;;;;;28.00;13.80;;;;;;;;;;5030417;28;20048;-64
2022/03/05 11:27:04;;;;;;;22.30;8.00;;;;;;;;;;5029849;28;20032;-65
2022/03/05 11:29:29;;;;;;;28.65;8.75;;;;;;;;;;5030167;28;20030;-65
2022/03/05 11:32:09;;;;;;;23.67;10.25;;;;;;;;;;5029931;28;20018;-66
2022/03/05 11:34:42;;;;;;;29.17;11.48;;;;;;;;;;5030111;28;20024;-66
2022/03/05 11:37:14;;;;;;;14.43;6.57;;;;;;;;;;5030284;28;20121;-66
2022/03/05 11:39:39;;;;;;;12.23;5.70;;;;;;;;;;5033237;28;20025;-66
2022/03/05 11:42:05;;;;;;;19.48;7.20;;;;;;;;;;5033288;28;20018;-66
2022/03/05 11:44:36;;;;;;;28.67;12.25;;;;;;;;;;5033602;28;20021;-66
2022/03/05 11:47:21;;;;;;;22.08;8.80;;;;;;;;;;5033388;28;20013;-66
2022/03/05 11:49:58;;;;;;;26.25;10.55;;;;;;;;;;5033415;28;20462;-66
2022/03/05 11:52:47;;;;;;;17.17;7.35;;;;;;;;;;5033325;28;20018;-65
2022/03/05 11:55:16;;;;;;;25.00;9.23;;;;;;;;;;5030137;28;20032;-65
2022/03/05 11:57:41;;;;;;;24.38;9.88;;;;;;;;;;5033358;28;20058;-65
2022/03/05 12:00:07;;;;;;;18.88;7.00;;;;;;;;;;5032912;28;20018;-65
2022/03/05 12:02:36;;;;;;;18.90;6.85;;;;;;;;;;5033896;28;20032;-65
2022/03/05 12:05:01;;;;;;;24.48;10.65;;;;;;;;;;5033382;28;20505;-65
2022/03/05 12:07:34;;;;;;;32.75;13.57;;;;;;;;;;5034009;28;20025;-65
2022/03/05 12:10:03;;;;;;;11.00;5.90;;;;;;;;;;5046039;28;20013;-66
2022/03/05 12:12:48;;;;;;;18.58;8.40;;;;;;;;;;5033347;28;20018;-65
2022/03/05 12:15:13;;;;;;;16.38;8.50;;;;;;;;;;5026051;28;20469;-65
2022/03/05 12:17:40;;;;;;;22.23;9.63;;;;;;;;;;5032836;28;20043;-64
2022/03/05 12:20:10;;;;;;;15.20;6.10;;;;;;;;;;5032543;28;20032;-65
2022/03/05 12:22:35;;;;;;;16.90;6.27;;;;;;;;;;5032309;28;20021;-65
2022/03/05 12:25:00;;;;;;;15.57;5.95;;;;;;;;;;5032729;28;20248;-65
2022/03/05 12:27:28;;;;;;;23.47;10.97;;;;;;;;;;5032450;28;20131;-66
2022/03/05 12:29:53;;;;;;;16.25;7.68;;;;;;;;;;5032130;28;20260;-66
2022/03/05 12:32:19;;;;;;;15.90;7.32;;;;;;;;;;5032637;28;20401;-65
2022/03/05 12:34:44;;;;;;;25.38;8.98;;;;;;;;;;5032571;28;20096;-65
2022/03/05 12:37:10;;;;;;;16.80;7.78;;;;;;;;;;5032755;28;20025;-65
2022/03/05 12:39:44;;;;;;;21.40;11.40;;;;;;;;;;5032114;28;20037;-65
2022/03/05 12:42:10;;;;;;;22.55;8.73;;;;;;;;;;5032077;28;20405;-65
2022/03/05 12:44:39;;;;;;;26.13;11.07;;;;;;;;;;5031790;28;20087;-66
2022/03/05 12:47:05;;;;;;;25.33;11.57;;;;;;;;;;5029488;28;20268;-66
2022/03/05 12:49:31;;;;;;;19.02;6.82;;;;;;;;;;5031437;28;20336;-66
2022/03/05 12:51:56;;;;;;;24.83;10.68;;;;;;;;;;5032601;28;20152;-65
2022/03/05 12:54:21;;;;;;;23.67;10.82;;;;;;;;;;5032292;28;20104;-65
2022/03/05 12:56:47;;;;;;;23.00;8.73;;;;;;;;;;5032145;28;20021;-65
2022/03/05 12:59:13;;;;;;;18.35;10.27;;;;;;;;;;5031104;28;20029;-66
2022/03/05 13:01:38;;;;;;;25.80;10.65;;;;;;;;;;5031922;28;20502;-65
2022/03/05 13:04:04;;;;;;;23.27;11.10;;;;;;;;;;5031831;28;20049;-66
2022/03/05 13:06:29;;;;;;;21.15;9.68;;;;;;;;;;5031582;28;20276;-65
2022/03/05 13:08:54;;;;;;;22.37;10.47;;;;;;;;;;5031952;28;20374;-66
2022/03/05 13:11:21;;;;;;;27.13;10.30;;;;;;;;;;5031919;28;20462;-66
2022/03/05 13:13:49;;;;;;;22.45;10.63;;;;;;;;;;5027965;28;20170;-66
2022/03/05 13:16:21;;;;;;;18.45;8.25;;;;;;;;;;5029591;28;20025;-66
2022/03/05 13:19:01;;;;;;;16.60;7.00;;;;;;;;;;5031225;28;20271;-66
2022/03/05 13:21:26;;;;;;;14.17;6.47;;;;;;;;;;5031440;28;20489;-65
2022/03/05 13:23:51;;;;;;;27.38;9.45;;;;;;;;;;5031240;28;20022;-65
2022/03/05 13:26:16;;;;;;;23.38;10.82;;;;;;;;;;5031413;28;20022;-66
2022/03/05 13:28:42;;;;;;;19.38;9.68;;;;;;;;;;5031433;28;20032;-65
2022/03/05 13:31:07;;;;;;;24.58;7.90;;;;;;;;;;5031893;28;20080;-66
2022/03/05 13:33:33;;;;;;;19.63;9.45;;;;;;;;;;5031536;28;20139;-66
2022/03/05 13:35:58;;;;;;;20.38;8.20;;;;;;;;;;5031557;28;20413;-66
2022/03/05 13:38:25;;;;;;;20.37;9.93;;;;;;;;;;5029057;28;20029;-66
2022/03/05 13:40:50;;;;;;;19.13;9.27;;;;;;;;;;5027957;28;20260;-66
2022/03/05 13:43:20;;;;;;;8.20;4.65;;;;;;;;;;5029788;28;20032;-66
2022/03/05 13:45:45;;;;;;;20.10;10.60;;;;;;;;;;5031017;28;20897;-66
2022/03/05 13:48:10;;;;;;;19.95;9.75;;;;;;;;;;5031358;28;20275;-67
2022/03/05 13:50:38;;;;;;;17.05;8.80;;;;;;;;;;5030524;28;20144;-66
2022/03/05 13:53:04;;;;;;;19.92;9.50;;;;;;;;;;5030729;28;20022;-66
2022/03/05 13:55:29;;;;;;;18.58;9.15;;;;;;;;;;5030180;28;20026;-66
2022/03/05 13:57:58;;;;;;;19.08;8.75;;;;;;;;;;5030550;28;20389;-65
2022/03/05 14:00:24;;;;;;;18.73;8.13;;;;;;;;;;5028987;28;20422;-66
2022/03/05 14:02:51;;;;;;;13.20;5.38;;;;;;;;;;5029386;28;20032;-66
2022/03/05 14:05:23;;;;;;;17.55;9.02;;;;;;;;;;5030998;28;20018;-65
2022/03/05 14:07:50;;;;;;;20.05;7.55;;;;;;;;;;5030672;28;20067;-65
2022/03/05 14:10:16;;;;;;;21.45;11.20;;;;;;;;;;5030241;28;20455;-66
2022/03/05 14:12:45;;;;;;;17.15;9.32;;;;;;;;;;5030480;28;20401;-66
2022/03/05 14:15:11;;;;;;;21.00;9.00;;;;;;;;;;5024902;28;20196;-66